createdAt,value
2022-08-09T00:00:32.420Z,2.40
2022-08-09T00:01:10.517Z,2.70
2022-08-09T00:01:55.415Z,2.50
2022-08-09T00:02:28.147Z,2.20
2022-08-09T00:03:00.130Z,2.65
2022-08-09T00:04:03.692Z,2.65
2022-08-09T00:04:33.833Z,2.35
2022-08-09T00:06:17.559Z,2.50
2022-08-09T00:06:17.698Z,2.67
2022-08-09T00:06:51.425Z,2.78
2022-08-09T00:07:29.669Z,3.03
2022-08-09T00:08:01.871Z,3.25
2022-08-09T00:08:34.362Z,2.42
2022-08-09T00:09:06.376Z,2.70
2022-08-09T00:09:42.688Z,2.78
2022-08-09T00:10:21.060Z,2.28
2022-08-09T00:10:53.633Z,2.85
2022-08-09T00:12:02.926Z,2.72
2022-08-09T00:12:23.025Z,2.55
2022-08-09T00:12:55.046Z,2.60
2022-08-09T00:13:27.976Z,2.67
2022-08-09T00:14:03.923Z,2.78
2022-08-09T00:14:38.245Z,2.28
2022-08-09T00:15:14.600Z,2.55
2022-08-09T00:16:00.062Z,2.50
2022-08-09T00:16:36.474Z,2.55
2022-08-09T00:17:09.177Z,3.10
2022-08-09T00:18:06.115Z,2.70
2022-08-09T00:18:44.330Z,3.10
2022-08-09T00:19:18.535Z,2.50
2022-08-09T00:19:50.661Z,2.40
2022-08-09T00:20:23.974Z,2.92
2022-08-09T00:20:56.015Z,3.03
2022-08-09T00:21:28.055Z,3.03
2022-08-09T00:22:00.480Z,2.97
2022-08-09T00:22:36.235Z,2.72
2022-08-09T00:23:56.598Z,2.47
2022-08-09T00:24:00.518Z,2.65
2022-08-09T00:24:32.833Z,2.63
2022-08-09T00:25:10.001Z,2.80
2022-08-09T00:25:44.760Z,2.47
2022-08-09T00:26:32.128Z,2.40
2022-08-09T00:27:05.446Z,2.72
2022-08-09T00:27:43.048Z,2.60
2022-08-09T00:28:15.428Z,2.90
2022-08-09T00:28:52.246Z,2.88
2022-08-09T00:29:39.822Z,2.83
2022-08-09T00:30:25.594Z,3.38
2022-08-09T00:30:59.033Z,2.63
2022-08-09T00:31:59.431Z,2.80
2022-08-09T00:32:25.744Z,2.83
2022-08-09T00:32:59.638Z,3.05
2022-08-09T00:33:32.754Z,2.60
2022-08-09T00:34:22.905Z,2.78
2022-08-09T00:34:58.655Z,2.78
2022-08-09T00:35:42.816Z,2.65
2022-08-09T00:36:15.930Z,2.38
2022-08-09T00:36:48.900Z,3.00
2022-08-09T00:37:21.140Z,3.20
2022-08-09T00:37:53.108Z,2.90
2022-08-09T00:38:25.824Z,2.63
2022-08-09T00:38:58.955Z,2.58
2022-08-09T00:40:13.967Z,2.90
2022-08-09T00:40:23.454Z,2.72
2022-08-09T00:41:03.515Z,2.88
2022-08-09T00:44:15.131Z,3.17
2022-08-09T00:44:15.861Z,2.83
2022-08-09T00:44:16.063Z,3.10
2022-08-09T00:44:27.327Z,3.22
2022-08-09T00:44:59.840Z,2.97
2022-08-09T00:45:36.298Z,2.95
2022-08-09T00:46:09.439Z,3.53
2022-08-09T00:46:57.292Z,3.03
2022-08-09T00:47:39.707Z,3.15
2022-08-09T00:48:15.411Z,3.22
2022-08-09T00:48:51.538Z,3.25
2022-08-09T00:49:28.555Z,2.95
2022-08-09T00:50:03.371Z,3.40
2022-08-09T00:50:37.785Z,2.78
2022-08-09T00:51:12.808Z,2.90
2022-08-09T00:51:54.813Z,2.85
2022-08-09T00:52:30.820Z,2.88
2022-08-09T00:53:10.116Z,3.20
2022-08-09T00:53:42.930Z,3.10
2022-08-09T00:54:18.474Z,3.35
2022-08-09T00:54:53.386Z,3.33
2022-08-09T00:56:03.748Z,3.25
2022-08-09T00:56:17.708Z,3.55
2022-08-09T00:56:49.785Z,2.92
2022-08-09T00:57:24.661Z,2.88
2022-08-09T00:58:07.301Z,3.10
2022-08-09T00:58:41.321Z,3.03
2022-08-09T00:59:31.681Z,2.60
2022-08-09T01:00:21.970Z,3.40
2022-08-09T01:00:58.899Z,3.30
2022-08-09T01:01:45.131Z,2.88
2022-08-09T01:02:20.242Z,2.78
2022-08-09T01:02:57.693Z,2.85
2022-08-09T01:03:46.686Z,2.78
2022-08-09T01:04:34.094Z,2.67
2022-08-09T01:05:13.900Z,3.00
2022-08-09T01:05:59.522Z,3.25
2022-08-09T01:06:55.705Z,3.05
2022-08-09T01:07:38.006Z,2.80
2022-08-09T01:08:49.492Z,2.72
2022-08-09T01:09:37.215Z,2.63
2022-08-09T01:10:25.935Z,3.03
2022-08-09T01:11:08.624Z,3.03
2022-08-09T01:11:55.376Z,3.00
2022-08-09T01:12:34.133Z,3.13
2022-08-09T01:13:24.922Z,3.10
2022-08-09T01:14:04.617Z,2.78
2022-08-09T01:14:39.833Z,3.10
2022-08-09T01:15:16.981Z,2.80
2022-08-09T01:15:52.924Z,3.13
2022-08-09T01:16:28.158Z,2.70
2022-08-09T01:17:22.206Z,3.15
2022-08-09T01:17:57.664Z,2.97
2022-08-09T01:18:31.353Z,3.03
2022-08-09T01:19:39.805Z,2.90
2022-08-09T01:20:19.960Z,3.00
2022-08-09T01:20:58.593Z,3.22
2022-08-09T01:21:52.378Z,2.70
2022-08-09T01:22:29.088Z,2.90
2022-08-09T01:23:01.146Z,3.38
2022-08-09T01:24:02.237Z,3.30
2022-08-09T01:24:31.571Z,3.20
2022-08-09T01:25:03.560Z,3.08
2022-08-09T01:25:42.166Z,3.05
2022-08-09T01:26:30.690Z,2.90
2022-08-09T01:27:05.640Z,3.40
2022-08-09T01:27:40.956Z,3.05
2022-08-09T01:28:14.686Z,3.20
2022-08-09T01:28:48.820Z,3.15
2022-08-09T01:29:41.292Z,3.20
2022-08-09T01:30:33.401Z,3.00
2022-08-09T01:31:11.156Z,3.17
2022-08-09T01:32:31.281Z,3.13
2022-08-09T01:32:57.673Z,3.25
2022-08-09T01:33:33.863Z,3.05
2022-08-09T01:34:08.940Z,3.15
2022-08-09T01:34:43.339Z,3.25
2022-08-09T01:35:38.546Z,3.30
2022-08-09T01:36:15.150Z,3.00
2022-08-09T01:36:49.489Z,3.15
2022-08-09T01:38:05.896Z,2.95
2022-08-09T01:38:24.548Z,3.00
2022-08-09T01:38:58.131Z,3.30
2022-08-09T01:39:31.142Z,2.90
2022-08-09T01:40:09.048Z,3.10
2022-08-09T01:40:42.611Z,3.08
2022-08-09T01:41:25.701Z,2.92
2022-08-09T01:42:02.219Z,3.17
2022-08-09T01:42:38.356Z,3.20
2022-08-09T01:43:11.711Z,3.10
2022-08-09T01:43:51.553Z,3.40
2022-08-09T01:44:25.131Z,3.25
2022-08-09T01:44:57.406Z,3.40
2022-08-09T01:45:31.833Z,3.10
2022-08-09T01:46:05.226Z,3.00
2022-08-09T01:46:42.400Z,3.08
2022-08-09T01:47:19.522Z,3.38
2022-08-09T01:47:52.178Z,3.00
2022-08-09T01:48:29.956Z,3.00
2022-08-09T01:49:09.337Z,3.10
2022-08-09T01:49:48.794Z,3.70
2022-08-09T01:50:36.856Z,3.00
2022-08-09T01:51:09.985Z,3.42
2022-08-09T01:51:44.571Z,3.22
2022-08-09T01:52:26.467Z,2.83
2022-08-09T01:52:59.844Z,3.40
2022-08-09T01:53:41.206Z,3.22
2022-08-09T01:54:14.259Z,3.17
2022-08-09T01:54:50.589Z,2.92
2022-08-09T01:55:23.359Z,3.00
2022-08-09T01:55:56.674Z,2.90
2022-08-09T01:56:30.515Z,3.33
2022-08-09T01:57:14.688Z,2.85
2022-08-09T01:57:50.705Z,3.38
2022-08-09T01:58:25.629Z,3.22
2022-08-09T01:59:02.959Z,3.42
2022-08-09T01:59:50.795Z,2.97
2022-08-09T02:00:35.831Z,3.38
2022-08-09T02:01:09.130Z,3.28
2022-08-09T02:01:59.872Z,2.95
2022-08-09T02:02:35.698Z,3.03
2022-08-09T02:03:13.631Z,3.30
2022-08-09T02:03:47.162Z,2.97
2022-08-09T02:04:20.595Z,3.17
2022-08-09T02:04:54.270Z,3.38
2022-08-09T02:05:37.710Z,3.20
2022-08-09T02:06:10.954Z,3.17
2022-08-09T02:07:02.852Z,2.80
2022-08-09T02:08:38.947Z,3.63
2022-08-09T02:08:39.104Z,3.40
2022-08-09T02:09:22.514Z,3.08
2022-08-09T02:10:01.344Z,3.05
2022-08-09T02:10:38.380Z,3.00
2022-08-09T02:11:16.751Z,2.92
2022-08-09T02:11:49.243Z,3.25
2022-08-09T02:12:22.536Z,3.00
2022-08-09T02:12:56.129Z,2.95
2022-08-09T02:13:37.740Z,2.88
2022-08-09T02:14:15.855Z,3.20
2022-08-09T02:14:59.952Z,2.97
2022-08-09T02:15:48.702Z,2.85
2022-08-09T02:16:33.625Z,2.95
2022-08-09T02:17:29.465Z,3.38
2022-08-09T02:18:10.242Z,2.80
2022-08-09T02:18:48.019Z,3.30
2022-08-09T02:19:20.830Z,2.97
2022-08-09T02:19:53.489Z,2.92
2022-08-09T02:20:32.726Z,3.30
2022-08-09T02:21:09.123Z,2.60
2022-08-09T02:21:43.706Z,2.90
2022-08-09T02:22:38.558Z,3.45
2022-08-09T02:23:19.768Z,3.10
2022-08-09T02:23:56.411Z,3.03
2022-08-09T02:24:30.408Z,3.42
2022-08-09T02:25:03.433Z,2.78
2022-08-09T02:25:42.724Z,2.83
2022-08-09T02:26:27.378Z,3.20
2022-08-09T02:27:00.893Z,2.78
2022-08-09T02:27:57.380Z,2.65
2022-08-09T02:28:34.342Z,2.85
2022-08-09T02:29:08.374Z,2.60
2022-08-09T02:29:43.235Z,3.03
2022-08-09T02:30:15.645Z,3.45
2022-08-09T02:30:50.618Z,3.13
2022-08-09T02:31:26.207Z,2.97
2022-08-09T02:32:00.914Z,3.20
2022-08-09T02:32:36.643Z,2.95
2022-08-09T02:33:14.216Z,3.22
2022-08-09T02:34:06.871Z,3.05
2022-08-09T02:34:51.823Z,2.90
2022-08-09T02:36:01.853Z,3.50
2022-08-09T02:36:22.175Z,3.35
2022-08-09T02:36:59.220Z,3.20
2022-08-09T02:37:36.542Z,3.00
2022-08-09T02:38:09.738Z,3.33
2022-08-09T02:38:47.542Z,3.42
2022-08-09T02:39:33.527Z,2.92
2022-08-09T02:40:13.856Z,3.08
2022-08-09T02:40:51.590Z,3.22
2022-08-09T02:41:32.727Z,3.13
2022-08-09T02:42:06.860Z,3.10
2022-08-09T02:42:42.054Z,3.05
2022-08-09T02:43:14.910Z,3.28
2022-08-09T02:43:54.725Z,2.97
2022-08-09T02:44:31.090Z,3.20
2022-08-09T02:45:26.720Z,2.70
2022-08-09T02:46:01.515Z,3.22
2022-08-09T02:46:36.105Z,3.20
2022-08-09T02:47:12.544Z,3.38
2022-08-09T02:47:57.500Z,3.63
2022-08-09T02:48:32.024Z,3.40
2022-08-09T02:49:07.054Z,3.65
2022-08-09T02:49:45.901Z,3.42
2022-08-09T02:50:30.998Z,2.88
2022-08-09T02:51:03.300Z,3.35
2022-08-09T02:51:40.088Z,3.25
2022-08-09T02:52:15.168Z,3.03
2022-08-09T02:52:50.068Z,3.78
2022-08-09T02:53:37.071Z,3.30
2022-08-09T02:54:13.999Z,3.00
2022-08-09T02:54:54.524Z,2.97
2022-08-09T02:55:46.403Z,3.30
2022-08-09T02:56:20.594Z,3.42
2022-08-09T02:56:56.893Z,2.90
2022-08-09T02:57:30.162Z,3.30
2022-08-09T02:58:32.771Z,3.33
2022-08-09T02:59:07.887Z,3.53
2022-08-09T02:59:40.051Z,3.00
2022-08-09T03:00:32.183Z,3.25
2022-08-09T03:01:06.393Z,3.45
2022-08-09T03:02:05.745Z,2.70
2022-08-09T03:02:33.242Z,3.30
2022-08-09T03:03:07.250Z,3.20
2022-08-09T03:04:17.231Z,2.97
2022-08-09T03:04:33.511Z,3.30
2022-08-09T03:05:06.735Z,3.08
2022-08-09T03:05:40.089Z,3.30
2022-08-09T03:06:15.003Z,3.47
2022-08-09T03:06:48.880Z,3.50
2022-08-09T03:07:21.941Z,3.40
2022-08-09T03:07:54.949Z,3.30
2022-08-09T03:08:27.897Z,3.50
2022-08-09T03:09:00.312Z,3.03
2022-08-09T03:09:33.507Z,3.25
2022-08-09T03:10:06.090Z,3.63
2022-08-09T03:10:38.550Z,3.42
2022-08-09T03:11:13.103Z,3.40
2022-08-09T03:12:05.719Z,3.20
2022-08-09T03:12:43.492Z,3.40
2022-08-09T03:13:21.918Z,3.20
2022-08-09T03:14:01.275Z,3.58
2022-08-09T03:14:34.061Z,3.25
2022-08-09T03:15:09.704Z,3.38
2022-08-09T03:16:06.788Z,3.20
2022-08-09T03:16:38.471Z,3.08
2022-08-09T03:17:16.513Z,3.78
2022-08-09T03:17:57.789Z,3.53
2022-08-09T03:18:31.603Z,3.42
2022-08-09T03:19:03.928Z,3.70
2022-08-09T03:19:58.711Z,3.35
2022-08-09T03:20:37.890Z,3.30
2022-08-09T03:21:11.138Z,3.67
2022-08-09T03:21:50.807Z,4.05
2022-08-09T03:22:30.163Z,3.30
2022-08-09T03:23:14.503Z,3.60
2022-08-09T03:23:58.625Z,3.72
2022-08-09T03:24:42.459Z,3.88
2022-08-09T03:25:26.412Z,3.95
2022-08-09T03:26:15.910Z,4.03
2022-08-09T03:26:48.862Z,3.30
2022-08-09T03:27:25.945Z,3.80
2022-08-09T03:27:59.216Z,4.38
2022-08-09T03:28:33.753Z,3.90
2022-08-09T03:29:13.434Z,3.60
2022-08-09T03:30:01.101Z,3.72
2022-08-09T03:30:36.835Z,4.20
2022-08-09T03:31:20.973Z,3.65
2022-08-09T03:32:00.522Z,3.85
2022-08-09T03:32:36.887Z,3.90
2022-08-09T03:33:16.951Z,3.53
2022-08-09T03:33:53.347Z,3.70
2022-08-09T03:34:27.122Z,3.97
2022-08-09T03:34:59.597Z,3.92
2022-08-09T03:36:11.562Z,4.13
2022-08-09T03:36:27.643Z,3.85
2022-08-09T03:37:10.564Z,3.50
2022-08-09T03:37:55.567Z,3.75
2022-08-09T03:38:30.656Z,4.43
2022-08-09T03:39:03.621Z,3.97
2022-08-09T03:39:38.066Z,3.92
2022-08-09T03:40:13.277Z,3.92
2022-08-09T03:40:45.471Z,4.13
2022-08-09T03:41:18.557Z,3.97
2022-08-09T03:41:51.361Z,4.15
2022-08-09T03:42:39.046Z,4.13
2022-08-09T03:43:14.994Z,3.78
2022-08-09T03:43:51.729Z,4.00
2022-08-09T03:44:35.933Z,3.90
2022-08-09T03:45:08.913Z,4.13
2022-08-09T03:46:04.813Z,3.50
2022-08-09T03:46:33.028Z,3.65
2022-08-09T03:47:05.091Z,3.92
2022-08-09T03:47:41.821Z,4.10
2022-08-09T03:48:19.033Z,3.83
2022-08-09T03:49:07.901Z,4.60
2022-08-09T03:49:42.137Z,3.85
2022-08-09T03:50:31.784Z,4.13
2022-08-09T03:51:07.195Z,3.90
2022-08-09T03:52:00.343Z,3.80
2022-08-09T03:52:36.164Z,4.22
2022-08-09T03:53:10.560Z,3.88
2022-08-09T03:53:43.475Z,3.70
2022-08-09T03:54:18.617Z,3.70
2022-08-09T03:55:03.460Z,4.32
2022-08-09T03:55:40.842Z,3.90
2022-08-09T03:56:14.589Z,3.80
2022-08-09T03:56:46.839Z,3.80
2022-08-09T03:57:20.928Z,3.72
2022-08-09T03:58:03.314Z,4.07
2022-08-09T03:58:38.735Z,3.92
2022-08-09T03:59:17.193Z,3.83
2022-08-09T03:59:56.092Z,4.07
2022-08-09T04:00:32.933Z,4.38
2022-08-09T04:01:05.506Z,4.38
2022-08-09T04:01:38.683Z,4.25
2022-08-09T04:02:11.411Z,4.38
2022-08-09T04:02:46.924Z,4.55
2022-08-09T04:03:45.786Z,4.60
2022-08-09T04:04:17.045Z,3.83
2022-08-09T04:04:50.949Z,3.65
2022-08-09T04:05:27.507Z,3.50
2022-08-09T04:06:00.425Z,3.85
2022-08-09T04:06:36.869Z,3.83
2022-08-09T04:07:09.719Z,4.57
2022-08-09T04:07:52.776Z,4.22
2022-08-09T04:08:29.075Z,3.90
2022-08-09T04:09:03.644Z,4.03
2022-08-09T04:09:55.707Z,3.78
2022-08-09T04:10:29.481Z,3.90
2022-08-09T04:11:02.241Z,3.55
2022-08-09T04:11:53.046Z,4.18
2022-08-09T04:12:45.147Z,3.95
2022-08-09T04:13:18.840Z,4.45
2022-08-09T04:14:53.945Z,3.72
2022-08-09T04:15:00.916Z,4.13
2022-08-09T04:15:51.992Z,4.10
2022-08-09T04:16:27.366Z,4.28
2022-08-09T04:16:59.472Z,4.18
2022-08-09T04:17:31.510Z,4.70
2022-08-09T04:18:04.318Z,4.03
2022-08-09T04:18:36.395Z,4.00
2022-08-09T04:19:10.959Z,4.25
2022-08-09T04:19:51.436Z,3.95
2022-08-09T04:20:28.172Z,4.05
2022-08-09T04:21:01.131Z,4.00
2022-08-09T04:21:38.454Z,4.40
2022-08-09T04:22:11.967Z,4.10
2022-08-09T04:22:45.810Z,4.57
2022-08-09T04:23:18.003Z,4.40
2022-08-09T04:23:57.775Z,4.40
2022-08-09T04:24:31.837Z,4.10
2022-08-09T04:25:05.839Z,3.88
2022-08-09T04:25:38.349Z,4.35
2022-08-09T04:26:11.119Z,4.10
2022-08-09T04:26:43.176Z,4.72
2022-08-09T04:27:15.149Z,4.88
2022-08-09T04:27:49.056Z,4.40
2022-08-09T04:28:34.293Z,4.32
2022-08-09T04:29:12.068Z,4.32
2022-08-09T04:29:49.886Z,4.63
2022-08-09T04:30:26.109Z,4.30
2022-08-09T04:31:00.794Z,4.43
2022-08-09T04:31:46.860Z,4.35
2022-08-09T04:32:23.488Z,4.65
2022-08-09T04:33:03.612Z,4.45
2022-08-09T04:33:51.590Z,3.92
2022-08-09T04:34:31.712Z,3.58
2022-08-09T04:35:05.051Z,3.30
2022-08-09T04:35:42.453Z,3.60
2022-08-09T04:36:14.610Z,3.35
2022-08-09T04:36:51.430Z,3.30
2022-08-09T04:37:24.692Z,3.45
2022-08-09T04:38:16.663Z,3.25
2022-08-09T04:38:50.412Z,3.25
2022-08-09T04:39:22.479Z,3.28
2022-08-09T04:39:55.472Z,3.08
2022-08-09T04:40:47.783Z,3.05
2022-08-09T04:41:23.780Z,3.22
2022-08-09T04:41:56.278Z,2.65
2022-08-09T04:42:33.260Z,3.30
2022-08-09T04:43:07.601Z,3.13
2022-08-09T04:43:46.536Z,3.45
2022-08-09T04:44:31.631Z,3.60
2022-08-09T04:45:04.130Z,3.17
2022-08-09T04:45:53.027Z,3.33
2022-08-09T04:46:38.170Z,3.20
2022-08-09T04:47:18.175Z,3.15
2022-08-09T04:48:01.003Z,3.33
2022-08-09T04:48:34.945Z,3.40
2022-08-09T04:49:06.958Z,3.10
2022-08-09T04:49:55.094Z,3.00
2022-08-09T04:50:31.960Z,3.10
2022-08-09T04:51:09.898Z,3.50
2022-08-09T04:51:41.874Z,3.03
2022-08-09T04:52:18.407Z,3.40
2022-08-09T04:52:54.239Z,3.85
2022-08-09T04:53:26.258Z,3.50
2022-08-09T04:53:58.660Z,4.03
2022-08-09T04:54:30.878Z,3.40
2022-08-09T04:55:04.697Z,3.90
2022-08-09T04:55:59.132Z,3.95
2022-08-09T04:56:31.958Z,3.85
2022-08-09T04:57:04.107Z,3.60
2022-08-09T04:57:58.579Z,3.42
2022-08-09T04:58:29.079Z,3.67
2022-08-09T04:59:07.711Z,3.65
2022-08-09T04:59:45.240Z,3.80
2022-08-09T05:00:22.374Z,3.67
2022-08-09T05:00:55.933Z,3.55
2022-08-09T05:01:29.531Z,3.95
2022-08-09T05:02:04.694Z,3.90
2022-08-09T05:02:38.404Z,3.90
2022-08-09T05:03:39.975Z,4.28
2022-08-09T05:04:04.858Z,3.65
2022-08-09T05:04:37.076Z,3.42
2022-08-09T05:05:10.479Z,3.40
2022-08-09T05:05:51.948Z,3.58
2022-08-09T05:06:27.856Z,3.63
2022-08-09T05:07:01.129Z,3.95
2022-08-09T05:07:33.137Z,3.78
2022-08-09T05:08:05.210Z,3.80
2022-08-09T05:08:39.292Z,3.78
2022-08-09T05:09:16.789Z,3.65
2022-08-09T05:09:49.771Z,3.50
2022-08-09T05:10:22.292Z,3.30
2022-08-09T05:10:55.920Z,4.15
2022-08-09T05:11:35.551Z,3.63
2022-08-09T05:12:08.164Z,3.80
2022-08-09T05:12:41.756Z,3.67
2022-08-09T05:13:14.294Z,3.47
2022-08-09T05:13:47.221Z,4.20
2022-08-09T05:14:20.782Z,4.20
2022-08-09T05:14:58.909Z,3.35
2022-08-09T05:15:43.224Z,3.55
2022-08-09T05:16:20.497Z,3.83
2022-08-09T05:17:03.654Z,3.35
2022-08-09T05:18:55.541Z,4.13
2022-08-09T05:18:58.048Z,3.58
2022-08-09T05:19:38.398Z,3.55
2022-08-09T05:20:16.967Z,4.15
2022-08-09T05:20:48.948Z,3.65
2022-08-09T05:21:23.243Z,3.60
2022-08-09T05:21:56.829Z,3.65
2022-08-09T05:22:34.929Z,3.70
2022-08-09T05:23:55.492Z,3.60
2022-08-09T05:24:02.378Z,3.85
2022-08-09T05:24:36.130Z,3.60
2022-08-09T05:25:08.299Z,3.75
2022-08-09T05:25:41.688Z,4.00
2022-08-09T05:26:22.223Z,3.58
2022-08-09T05:27:06.354Z,3.50
2022-08-09T05:27:45.546Z,3.70
2022-08-09T05:28:20.578Z,3.72
2022-08-09T05:28:53.187Z,3.85
2022-08-09T05:29:31.567Z,3.30
2022-08-09T05:30:07.796Z,3.53
2022-08-09T05:30:42.033Z,3.75
2022-08-09T05:31:37.075Z,3.35
2022-08-09T05:32:12.195Z,3.42
2022-08-09T05:32:50.960Z,3.50
2022-08-09T05:33:26.391Z,3.30
2022-08-09T05:34:05.329Z,2.75
2022-08-09T05:34:38.023Z,3.10
2022-08-09T05:35:14.998Z,2.80
2022-08-09T05:35:50.016Z,2.72
2022-08-09T05:36:22.940Z,3.08
2022-08-09T05:37:06.332Z,2.60
2022-08-09T05:37:47.821Z,2.80
2022-08-09T05:38:22.395Z,2.55
2022-08-09T05:38:54.708Z,2.70
2022-08-09T05:39:29.524Z,2.70
2022-08-09T05:40:02.176Z,2.67
2022-08-09T05:40:35.904Z,2.50
2022-08-09T05:41:12.678Z,2.90
2022-08-09T05:41:44.938Z,2.72
2022-08-09T05:42:21.907Z,2.80
2022-08-09T05:43:03.491Z,2.88
2022-08-09T05:43:36.639Z,2.67
2022-08-09T05:44:08.628Z,2.58
2022-08-09T05:44:40.919Z,2.58
2022-08-09T05:45:15.539Z,2.60
2022-08-09T05:45:56.650Z,2.15
2022-08-09T05:46:29.271Z,2.53
2022-08-09T05:47:01.314Z,2.22
2022-08-09T05:47:40.862Z,2.60
2022-08-09T05:48:27.656Z,2.25
2022-08-09T05:49:07.399Z,2.45
2022-08-09T05:50:25.593Z,2.08
2022-08-09T05:50:51.244Z,2.40
2022-08-09T05:51:45.838Z,2.20
2022-08-09T05:52:18.927Z,1.98
2022-08-09T05:52:54.093Z,2.15
2022-08-09T05:53:31.962Z,1.95
2022-08-09T05:54:05.512Z,2.05
2022-08-09T05:54:39.276Z,2.22
2022-08-09T05:55:20.808Z,2.20
2022-08-09T05:55:53.598Z,2.55
2022-08-09T05:56:27.750Z,2.45
2022-08-09T05:56:59.729Z,2.15
2022-08-09T05:57:50.365Z,2.00
2022-08-09T05:58:22.621Z,2.03
2022-08-09T05:58:59.713Z,1.92
2022-08-09T05:59:31.689Z,2.13
2022-08-09T06:00:06.066Z,1.88
2022-08-09T06:00:43.486Z,1.98
2022-08-09T06:01:15.953Z,1.77
2022-08-09T06:01:49.241Z,1.85
2022-08-09T06:02:22.138Z,2.08
2022-08-09T06:02:56.901Z,2.15
2022-08-09T06:03:34.845Z,1.77
2022-08-09T06:04:16.329Z,2.05
2022-08-09T06:04:55.830Z,2.22
2022-08-09T06:05:58.126Z,1.90
2022-08-09T06:06:24.090Z,2.10
2022-08-09T06:06:56.792Z,1.92
2022-08-09T06:07:29.389Z,2.38
2022-08-09T06:08:05.362Z,2.00
2022-08-09T06:08:40.173Z,1.88
2022-08-09T06:09:40.815Z,2.00
2022-08-09T06:10:06.482Z,2.15
2022-08-09T06:10:47.747Z,2.13
2022-08-09T06:11:21.858Z,2.15
2022-08-09T06:12:12.775Z,2.10
2022-08-09T06:12:44.894Z,2.08
2022-08-09T06:13:24.168Z,2.10
2022-08-09T06:13:56.153Z,2.00
2022-08-09T06:14:28.535Z,2.30
2022-08-09T06:15:01.828Z,1.80
2022-08-09T06:15:35.411Z,1.85
2022-08-09T06:16:07.877Z,1.95
2022-08-09T06:16:39.855Z,1.80
2022-08-09T06:17:13.478Z,1.90
2022-08-09T06:17:46.819Z,2.15
2022-08-09T06:18:24.923Z,2.20
2022-08-09T06:18:57.799Z,1.95
2022-08-09T06:19:30.282Z,1.92
2022-08-09T06:20:04.836Z,2.00
2022-08-09T06:20:39.107Z,1.73
2022-08-09T06:21:11.189Z,1.85
2022-08-09T06:21:50.525Z,1.73
2022-08-09T06:22:30.299Z,1.70
2022-08-09T06:23:02.341Z,1.85
2022-08-09T06:23:55.116Z,2.10
2022-08-09T06:24:27.980Z,1.80
2022-08-09T06:25:00.703Z,1.80
2022-08-09T06:25:32.762Z,1.70
2022-08-09T06:26:07.289Z,1.85
2022-08-09T06:26:42.146Z,1.70
2022-08-09T06:27:17.319Z,1.60
2022-08-09T06:27:51.826Z,1.90
2022-08-09T06:28:27.466Z,1.77
2022-08-09T06:29:05.100Z,2.08
2022-08-09T06:29:48.053Z,2.17
2022-08-09T06:30:29.582Z,1.88
2022-08-09T06:31:01.600Z,2.10
2022-08-09T06:31:39.630Z,1.95
2022-08-09T06:32:58.910Z,1.70
2022-08-09T06:33:40.441Z,1.95
2022-08-09T06:34:10.455Z,2.03
2022-08-09T06:34:42.492Z,1.90
2022-08-09T06:35:15.090Z,1.88
2022-08-09T06:35:57.396Z,1.92
2022-08-09T06:36:30.527Z,1.73
2022-08-09T06:37:02.564Z,2.15
2022-08-09T06:37:53.087Z,1.80
2022-08-09T06:38:32.118Z,1.60
2022-08-09T06:39:11.711Z,2.03
2022-08-09T06:39:58.154Z,1.70
2022-08-09T06:40:34.248Z,1.83
2022-08-09T06:41:18.210Z,1.70
2022-08-09T06:42:09.467Z,1.75
2022-08-09T06:42:44.740Z,1.80
2022-08-09T06:43:17.344Z,2.30
2022-08-09T06:43:51.054Z,2.00
2022-08-09T06:44:25.300Z,1.70
2022-08-09T06:44:58.881Z,1.80
2022-08-09T06:46:06.432Z,1.73
2022-08-09T06:46:39.856Z,1.88
2022-08-09T06:47:13.202Z,1.80
2022-08-09T06:47:48.614Z,1.58
2022-08-09T06:48:32.701Z,2.05
2022-08-09T06:49:07.495Z,2.03
2022-08-09T06:50:11.250Z,1.55
2022-08-09T06:50:31.898Z,1.80
2022-08-09T06:51:05.567Z,1.70
2022-08-09T06:51:40.126Z,1.50
2022-08-09T06:52:15.624Z,1.65
2022-08-09T06:52:48.706Z,2.10
2022-08-09T06:53:20.952Z,1.67
2022-08-09T06:53:52.930Z,2.08
2022-08-09T06:54:26.283Z,1.70
2022-08-09T06:54:58.376Z,1.80
2022-08-09T06:55:32.912Z,2.03
2022-08-09T06:56:05.152Z,1.60
2022-08-09T06:56:38.058Z,1.50
2022-08-09T06:57:11.947Z,1.70
2022-08-09T06:58:02.607Z,1.90
2022-08-09T07:00:47.244Z,1.77
2022-08-09T07:00:50.574Z,1.80
2022-08-09T07:00:57.038Z,1.85
2022-08-09T07:01:13.161Z,1.70
2022-08-09T07:01:57.805Z,2.10
2022-08-09T07:02:35.932Z,1.70
2022-08-09T07:03:11.032Z,1.73
2022-08-09T07:03:52.533Z,1.90
2022-08-09T07:04:26.920Z,1.73
2022-08-09T07:05:00.065Z,2.00
2022-08-09T07:06:02.936Z,1.70
2022-08-09T07:06:25.451Z,2.00
2022-08-09T07:07:01.038Z,1.80
2022-08-09T07:08:00.932Z,2.10
2022-08-09T07:08:30.553Z,1.60
2022-08-09T07:09:02.742Z,1.48
2022-08-09T07:09:55.637Z,2.20
2022-08-09T07:10:31.315Z,1.80
2022-08-09T07:11:05.200Z,1.67
2022-08-09T07:11:45.654Z,1.65
2022-08-09T07:12:38.414Z,1.90
2022-08-09T07:13:27.332Z,1.60
2022-08-09T07:14:05.343Z,2.15
2022-08-09T07:14:38.689Z,1.85
2022-08-09T07:16:35.282Z,1.90
2022-08-09T07:16:42.707Z,1.92
2022-08-09T07:16:58.364Z,1.80
2022-08-09T07:17:39.701Z,2.13
2022-08-09T07:18:22.926Z,1.70
2022-08-09T07:18:55.128Z,1.55
2022-08-09T07:19:27.264Z,2.00
2022-08-09T07:19:59.382Z,1.60
2022-08-09T07:20:31.876Z,1.88
2022-08-09T07:21:03.921Z,2.15
2022-08-09T07:21:41.115Z,1.65
2022-08-09T07:22:35.174Z,1.85
2022-08-09T07:23:18.671Z,2.22
2022-08-09T07:23:58.352Z,1.75
2022-08-09T07:24:31.431Z,2.20
2022-08-09T07:25:09.638Z,1.63
2022-08-09T07:25:43.377Z,1.70
2022-08-09T07:26:15.580Z,1.50
2022-08-09T07:26:50.913Z,1.70
2022-08-09T07:27:33.689Z,1.70
2022-08-09T07:28:06.427Z,1.73
2022-08-09T07:29:08.348Z,1.85
2022-08-09T07:29:37.948Z,1.88
2022-08-09T07:30:15.101Z,1.60
2022-08-09T07:30:47.156Z,1.80
2022-08-09T07:31:20.677Z,1.60
2022-08-09T07:31:56.184Z,1.83
2022-08-09T07:32:32.256Z,1.63
2022-08-09T07:33:12.366Z,1.88
2022-08-09T07:33:52.996Z,1.85
2022-08-09T07:34:28.173Z,2.22
2022-08-09T07:35:00.292Z,1.63
2022-08-09T07:35:44.282Z,1.92
2022-08-09T07:36:24.400Z,1.70
2022-08-09T07:36:56.653Z,1.77
2022-08-09T07:37:28.761Z,1.88
2022-08-09T07:38:00.759Z,1.88
2022-08-09T07:38:33.057Z,1.60
2022-08-09T07:39:06.048Z,1.60
2022-08-09T07:39:44.069Z,1.77
2022-08-09T07:40:26.939Z,1.88
2022-08-09T07:41:12.135Z,1.60
2022-08-09T07:41:45.211Z,2.05
2022-08-09T07:42:17.299Z,1.80
2022-08-09T07:42:49.303Z,1.85
2022-08-09T07:43:22.227Z,2.08
2022-08-09T07:44:01.475Z,2.08
2022-08-09T07:44:53.060Z,1.77
2022-08-09T07:45:37.926Z,1.98
2022-08-09T07:46:12.481Z,2.00
2022-08-09T07:46:51.657Z,1.75
2022-08-09T07:47:24.155Z,2.17
2022-08-09T07:48:01.623Z,1.92
2022-08-09T07:48:37.010Z,1.90
2022-08-09T07:49:15.380Z,1.83
2022-08-09T07:50:04.314Z,1.55
2022-08-09T07:50:40.628Z,1.70
2022-08-09T07:52:04.895Z,2.08
2022-08-09T07:52:17.083Z,1.88
2022-08-09T07:52:50.428Z,1.88
2022-08-09T07:53:36.507Z,2.15
2022-08-09T07:54:27.573Z,1.60
2022-08-09T07:55:02.432Z,1.63
2022-08-09T07:56:03.511Z,1.85
2022-08-09T07:56:33.883Z,1.92
2022-08-09T07:57:11.861Z,1.92
2022-08-09T07:57:47.040Z,2.05
2022-08-09T07:58:21.578Z,2.03
2022-08-09T07:58:59.241Z,1.80
2022-08-09T07:59:34.756Z,2.00
2022-08-09T08:00:36.681Z,1.77
2022-08-09T08:01:15.656Z,2.08
2022-08-09T08:01:55.992Z,2.00
2022-08-09T08:02:29.879Z,1.70
2022-08-09T08:03:02.209Z,1.90
2022-08-09T08:03:37.188Z,1.90
2022-08-09T08:04:10.265Z,2.15
2022-08-09T08:04:42.835Z,1.67
2022-08-09T08:05:21.171Z,1.55
2022-08-09T08:05:54.244Z,1.85
2022-08-09T08:06:33.301Z,2.03
2022-08-09T08:07:14.986Z,1.67
2022-08-09T08:08:42.765Z,1.70
2022-08-09T08:09:03.945Z,1.90
2022-08-09T08:09:42.581Z,1.92
2022-08-09T08:10:27.313Z,1.70
2022-08-09T08:11:15.306Z,2.10
2022-08-09T08:12:23.910Z,2.05
2022-08-09T08:12:45.562Z,1.90
2022-08-09T08:13:20.167Z,1.70
2022-08-09T08:13:57.290Z,1.70
2022-08-09T08:14:29.609Z,1.50
2022-08-09T08:15:02.355Z,1.95
2022-08-09T08:15:35.562Z,1.90
2022-08-09T08:16:31.876Z,1.70
2022-08-09T08:17:07.427Z,1.63
2022-08-09T08:17:55.224Z,1.70
2022-08-09T08:18:30.057Z,1.98
2022-08-09T08:19:04.483Z,2.08
2022-08-09T08:19:37.233Z,1.83
2022-08-09T08:20:12.854Z,2.08
2022-08-09T08:20:45.369Z,2.05
2022-08-09T08:21:17.743Z,1.90
2022-08-09T08:21:52.736Z,2.00
2022-08-09T08:22:25.771Z,1.88
2022-08-09T08:23:06.637Z,1.63
2022-08-09T08:23:55.599Z,1.88
2022-08-09T08:24:39.880Z,1.85
2022-08-09T08:25:13.644Z,1.92
2022-08-09T08:25:50.450Z,1.98
2022-08-09T08:26:54.738Z,2.00
2022-08-09T08:27:27.491Z,1.70
2022-08-09T08:28:14.318Z,1.70
2022-08-09T08:28:47.116Z,1.73
2022-08-09T08:29:27.843Z,1.90
2022-08-09T08:30:04.326Z,2.10
2022-08-09T08:30:36.556Z,1.77
2022-08-09T08:31:14.368Z,1.70
2022-08-09T08:32:03.946Z,1.80
2022-08-09T08:32:52.674Z,1.70
2022-08-09T08:33:25.897Z,2.13
2022-08-09T08:34:13.968Z,1.92
2022-08-09T08:34:46.618Z,1.73